AAL4256 KGSP-KEYW
Flight info
| Callsign | AAL4256 |
|---|---|
| Flight time | 1h 45m |
| Altitude | 38000 |
| Route | SOTHH IRQ |
| Aircraft | B38M/M-SDE1FGHILORVWXY/HB1 |
Departure
| Time | 2026-04-28 20:55 |
|---|---|
| Airport | Greenville-Spartanburg International Airport (KGSP) |
Arrival
| Time | 2026-04-28 22:40 |
|---|---|
| Airport | Key West International Airport (KEYW) |
| Time | Latitude | Longitude | Altitude | Speed | Heading |
|---|---|---|---|---|---|
| 2026-04-28 20:35 | 34.88905 | -82.21898 | 958 ft | 0 kts | 52° |
| 2026-04-28 20:43 | 34.88905 | -82.21899 | 963 ft | 2 kts | 52° |
| 2026-04-28 20:43 | 34.88893 | -82.21917 | 958 ft | 3 kts | 52° |
| 2026-04-28 20:44 | 34.88882 | -82.21934 | 960 ft | 3 kts | 27° |
| 2026-04-28 20:44 | 34.88864 | -82.21936 | 960 ft | 2 kts | 327° |
| 2026-04-28 20:44 | 34.88864 | -82.21935 | 960 ft | 0 kts | 327° |
| 2026-04-28 20:47 | 34.88871 | -82.21941 | 959 ft | 5 kts | 327° |
| 2026-04-28 20:47 | 34.88912 | -82.21973 | 960 ft | 0 kts | 328° |
| 2026-04-28 20:48 | 34.88913 | -82.21974 | 960 ft | 0 kts | 328° |
| 2026-04-28 20:48 | 34.88922 | -82.21980 | 958 ft | 2 kts | 333° |
| 2026-04-28 20:48 | 34.88963 | -82.21996 | 959 ft | 5 kts | 350° |
| 2026-04-28 20:49 | 34.88969 | -82.21997 | 960 ft | 1 kts | 354° |
| 2026-04-28 20:49 | 34.89002 | -82.21981 | 961 ft | 10 kts | 27° |
| 2026-04-28 20:49 | 34.89086 | -82.21917 | 959 ft | 19 kts | 32° |
| 2026-04-28 20:49 | 34.89207 | -82.21829 | 962 ft | 19 kts | 31° |
| 2026-04-28 20:50 | 34.89298 | -82.21757 | 963 ft | 11 kts | 36° |
| 2026-04-28 20:50 | 34.89367 | -82.21710 | 960 ft | 12 kts | 5° |
| 2026-04-28 20:50 | 34.89443 | -82.21739 | 961 ft | 12 kts | 16° |
| 2026-04-28 20:50 | 34.89519 | -82.21686 | 961 ft | 14 kts | 32° |
| 2026-04-28 20:51 | 34.89603 | -82.21622 | 962 ft | 15 kts | 33° |
| 2026-04-28 20:51 | 34.89699 | -82.21549 | 963 ft | 17 kts | 32° |
| 2026-04-28 20:51 | 34.89804 | -82.21470 | 963 ft | 19 kts | 31° |
| 2026-04-28 20:51 | 34.89878 | -82.21413 | 959 ft | 20 kts | 32° |
| 2026-04-28 20:52 | 34.90039 | -82.21291 | 960 ft | 22 kts | 32° |
| 2026-04-28 20:52 | 34.90171 | -82.21192 | 960 ft | 23 kts | 31° |
| 2026-04-28 20:52 | 34.90307 | -82.21083 | 963 ft | 24 kts | 33° |
| 2026-04-28 20:52 | 34.90454 | -82.20972 | 960 ft | 26 kts | 32° |
| 2026-04-28 20:53 | 34.90723 | -82.20772 | 960 ft | 20 kts | 18° |
| 2026-04-28 20:53 | 34.90773 | -82.20795 | 961 ft | 1 kts | 306° |
| 2026-04-28 20:53 | 34.90780 | -82.20809 | 959 ft | 4 kts | 302° |
| 2026-04-28 20:54 | 34.90818 | -82.20882 | 960 ft | 9 kts | 304° |
| 2026-04-28 20:54 | 34.90819 | -82.20923 | 961 ft | 3 kts | 221° |
| 2026-04-28 20:54 | 34.90693 | -82.21021 | 959 ft | 57 kts | 212° |
| 2026-04-28 20:54 | 34.90144 | -82.21445 | 958 ft | 128 kts | 212° |
| 2026-04-28 20:55 | 34.89235 | -82.22152 | 1040 ft | 177 kts | 212° |
| 2026-04-28 20:55 | 34.88121 | -82.23014 | 1657 ft | 195 kts | 212° |
| 2026-04-28 20:55 | 34.86976 | -82.23893 | 2718 ft | 192 kts | 214° |
| 2026-04-28 20:55 | 34.85797 | -82.24775 | 3498 ft | 210 kts | 214° |
| 2026-04-28 20:56 | 34.84933 | -82.25395 | 3942 ft | 224 kts | 213° |
| 2026-04-28 20:56 | 34.83511 | -82.26369 | 4656 ft | 244 kts | 213° |
| 2026-04-28 20:56 | 34.81968 | -82.27395 | 5441 ft | 260 kts | 213° |
| 2026-04-28 20:56 | 34.80394 | -82.28462 | 6101 ft | 248 kts | 213° |
| 2026-04-28 20:57 | 34.78935 | -82.29438 | 6154 ft | 236 kts | 210° |
| 2026-04-28 20:57 | 34.77154 | -82.29748 | 6182 ft | 284 kts | 172° |
| 2026-04-28 20:57 | 34.75269 | -82.29091 | 7295 ft | 280 kts | 169° |
| 2026-04-28 20:57 | 34.73336 | -82.28624 | 8186 ft | 287 kts | 174° |
| 2026-04-28 20:58 | 34.71348 | -82.28254 | 9114 ft | 291 kts | 175° |
| 2026-04-28 20:58 | 34.69318 | -82.27935 | 10023 ft | 297 kts | 176° |
| 2026-04-28 20:58 | 34.67215 | -82.27642 | 10660 ft | 312 kts | 177° |
| 2026-04-28 20:58 | 34.64992 | -82.27354 | 11179 ft | 328 kts | 177° |
| 2026-04-28 20:59 | 34.62685 | -82.27069 | 11848 ft | 338 kts | 178° |
| 2026-04-28 20:59 | 34.60336 | -82.26784 | 12713 ft | 341 kts | 178° |
| 2026-04-28 20:59 | 34.57951 | -82.26498 | 13484 ft | 347 kts | 178° |
| 2026-04-28 20:59 | 34.55531 | -82.26209 | 14252 ft | 352 kts | 178° |
| 2026-04-28 21:00 | 34.53075 | -82.25917 | 14946 ft | 356 kts | 178° |
| 2026-04-28 21:00 | 34.50594 | -82.25621 | 15640 ft | 361 kts | 178° |
| 2026-04-28 21:00 | 34.48081 | -82.25323 | 16320 ft | 365 kts | 178° |
| 2026-04-28 21:00 | 34.45548 | -82.25022 | 17026 ft | 368 kts | 178° |
| 2026-04-28 21:01 | 34.42981 | -82.24717 | 17692 ft | 372 kts | 178° |
| 2026-04-28 21:01 | 34.40389 | -82.24409 | 18360 ft | 376 kts | 178° |
| 2026-04-28 21:01 | 34.37764 | -82.24099 | 18935 ft | 380 kts | 179° |
| 2026-04-28 21:01 | 34.35115 | -82.23785 | 19504 ft | 384 kts | 179° |
| 2026-04-28 21:02 | 34.32442 | -82.23468 | 20054 ft | 388 kts | 179° |
| 2026-04-28 21:02 | 34.29750 | -82.23149 | 20600 ft | 391 kts | 180° |
| 2026-04-28 21:02 | 34.27031 | -82.22828 | 21144 ft | 394 kts | 180° |
| 2026-04-28 21:02 | 34.24287 | -82.22503 | 21670 ft | 398 kts | 180° |
| 2026-04-28 21:03 | 34.21524 | -82.22176 | 22188 ft | 401 kts | 180° |
| 2026-04-28 21:03 | 34.18773 | -82.21851 | 22728 ft | 404 kts | 180° |
| 2026-04-28 21:03 | 34.15964 | -82.21519 | 23244 ft | 407 kts | 180° |
| 2026-04-28 21:03 | 34.13136 | -82.21186 | 23759 ft | 410 kts | 181° |
| 2026-04-28 21:04 | 34.10282 | -82.20849 | 24189 ft | 413 kts | 181° |
| 2026-04-28 21:04 | 34.07410 | -82.20511 | 24606 ft | 416 kts | 181° |
| 2026-04-28 21:04 | 34.04514 | -82.20169 | 25018 ft | 419 kts | 181° |
| 2026-04-28 21:04 | 34.01601 | -82.19826 | 25439 ft | 422 kts | 181° |
| 2026-04-28 21:05 | 33.98671 | -82.19482 | 25843 ft | 425 kts | 181° |
| 2026-04-28 21:05 | 33.95721 | -82.19135 | 26219 ft | 428 kts | 180° |
| 2026-04-28 21:05 | 33.92748 | -82.18786 | 26638 ft | 430 kts | 180° |
| 2026-04-28 21:05 | 33.89761 | -82.18435 | 27022 ft | 433 kts | 180° |
| 2026-04-28 21:06 | 33.86750 | -82.18082 | 27399 ft | 436 kts | 181° |
| 2026-04-28 21:06 | 33.83725 | -82.17727 | 27769 ft | 438 kts | 181° |
| 2026-04-28 21:06 | 33.80680 | -82.17370 | 28131 ft | 441 kts | 181° |
| 2026-04-28 21:06 | 33.77615 | -82.17012 | 28493 ft | 444 kts | 181° |
| 2026-04-28 21:07 | 33.74529 | -82.16650 | 28844 ft | 447 kts | 181° |
| 2026-04-28 21:07 | 33.71426 | -82.16296 | 29208 ft | 448 kts | 182° |
| 2026-04-28 21:07 | 33.68326 | -82.16229 | 29517 ft | 447 kts | 186° |
| 2026-04-28 21:07 | 33.65208 | -82.16196 | 29901 ft | 449 kts | 185° |
| 2026-04-28 21:08 | 33.62073 | -82.16140 | 30236 ft | 452 kts | 185° |
| 2026-04-28 21:08 | 33.58919 | -82.16071 | 30524 ft | 454 kts | 185° |
| 2026-04-28 21:08 | 33.55753 | -82.15998 | 30834 ft | 456 kts | 185° |
| 2026-04-28 21:08 | 33.52577 | -82.15924 | 31142 ft | 457 kts | 185° |
| 2026-04-28 21:09 | 33.49393 | -82.15850 | 31453 ft | 459 kts | 185° |
| 2026-04-28 21:09 | 33.46196 | -82.15775 | 31758 ft | 460 kts | 185° |
| 2026-04-28 21:09 | 33.42988 | -82.15701 | 32040 ft | 461 kts | 184° |
| 2026-04-28 21:09 | 33.39780 | -82.15626 | 32405 ft | 462 kts | 184° |
| 2026-04-28 21:10 | 33.36606 | -82.15552 | 32710 ft | 463 kts | 185° |
| 2026-04-28 21:10 | 33.33379 | -82.15477 | 33014 ft | 464 kts | 185° |
| 2026-04-28 21:10 | 33.30149 | -82.15402 | 33327 ft | 466 kts | 185° |
| 2026-04-28 21:10 | 33.26907 | -82.15326 | 33679 ft | 465 kts | 185° |
| 2026-04-28 21:11 | 33.23677 | -82.15251 | 34097 ft | 464 kts | 185° |
| 2026-04-28 21:11 | 33.20455 | -82.15177 | 34448 ft | 462 kts | 185° |
| 2026-04-28 21:11 | 33.17242 | -82.15102 | 34744 ft | 462 kts | 185° |
| 2026-04-28 21:11 | 33.14024 | -82.15028 | 35012 ft | 463 kts | 185° |
| 2026-04-28 21:12 | 33.10805 | -82.14953 | 35264 ft | 463 kts | 185° |
| 2026-04-28 21:12 | 33.07581 | -82.14879 | 35460 ft | 464 kts | 185° |
| 2026-04-28 21:12 | 33.04353 | -82.14804 | 35749 ft | 464 kts | 185° |
| 2026-04-28 21:12 | 33.01119 | -82.14729 | 35973 ft | 465 kts | 186° |
| 2026-04-28 21:13 | 32.97885 | -82.14654 | 36200 ft | 465 kts | 186° |
| 2026-04-28 21:13 | 32.94644 | -82.14580 | 36424 ft | 466 kts | 186° |
| 2026-04-28 21:13 | 32.91398 | -82.14505 | 36642 ft | 466 kts | 186° |
| 2026-04-28 21:13 | 32.88152 | -82.14430 | 36824 ft | 467 kts | 186° |
| 2026-04-28 21:14 | 32.84902 | -82.14355 | 37010 ft | 468 kts | 186° |
| 2026-04-28 21:14 | 32.81639 | -82.14280 | 37197 ft | 469 kts | 186° |
| 2026-04-28 21:14 | 32.78381 | -82.14205 | 37391 ft | 469 kts | 186° |
| 2026-04-28 21:14 | 32.75115 | -82.14130 | 37578 ft | 469 kts | 186° |
| 2026-04-28 21:15 | 32.71845 | -82.14055 | 37765 ft | 470 kts | 186° |
| 2026-04-28 21:15 | 32.68579 | -82.13980 | 37918 ft | 470 kts | 186° |
| 2026-04-28 21:15 | 32.65303 | -82.13905 | 38081 ft | 471 kts | 186° |
| 2026-04-28 21:15 | 32.62026 | -82.13830 | 38152 ft | 471 kts | 186° |
| 2026-04-28 21:16 | 32.56218 | -82.13696 | 38117 ft | 469 kts | 186° |
| 2026-04-28 21:16 | 32.49695 | -82.13548 | 38103 ft | 469 kts | 186° |
| 2026-04-28 21:17 | 32.45503 | -82.13452 | 38093 ft | 469 kts | 186° |
| 2026-04-28 21:17 | 32.39006 | -82.13304 | 38094 ft | 470 kts | 186° |
| 2026-04-28 21:18 | 32.32473 | -82.13155 | 38126 ft | 469 kts | 185° |
| 2026-04-28 21:18 | 32.25942 | -82.13007 | 38128 ft | 469 kts | 185° |
| 2026-04-28 21:19 | 32.19410 | -82.12858 | 38116 ft | 470 kts | 185° |
| 2026-04-28 21:19 | 32.12870 | -82.12710 | 38099 ft | 470 kts | 185° |
| 2026-04-28 21:20 | 32.06330 | -82.12562 | 38100 ft | 471 kts | 185° |
| 2026-04-28 21:20 | 31.99760 | -82.12414 | 38100 ft | 472 kts | 185° |
| 2026-04-28 21:21 | 31.93199 | -82.12266 | 38112 ft | 472 kts | 185° |
| 2026-04-28 21:21 | 31.86640 | -82.12225 | 38101 ft | 465 kts | 194° |
| 2026-04-28 21:22 | 31.83556 | -82.13086 | 38121 ft | 449 kts | 207° |
| 2026-04-28 21:22 | 31.80585 | -82.14258 | 38114 ft | 456 kts | 201° |
| 2026-04-28 21:22 | 31.75447 | -82.15760 | 38193 ft | 460 kts | 200° |
| 2026-04-28 21:23 | 31.68165 | -82.17750 | 38178 ft | 460 kts | 199° |
| 2026-04-28 21:23 | 31.61923 | -82.19418 | 38169 ft | 460 kts | 199° |
| 2026-04-28 21:24 | 31.55671 | -82.21083 | 38160 ft | 460 kts | 199° |
| 2026-04-28 21:24 | 31.49447 | -82.22740 | 38170 ft | 463 kts | 199° |
| 2026-04-28 21:25 | 31.43160 | -82.24410 | 38153 ft | 463 kts | 199° |
| 2026-04-28 21:25 | 31.36878 | -82.26077 | 38140 ft | 463 kts | 199° |
| 2026-04-28 21:26 | 31.30586 | -82.27744 | 38132 ft | 463 kts | 199° |
| 2026-04-28 21:26 | 31.24287 | -82.29411 | 38130 ft | 466 kts | 199° |
| 2026-04-28 21:27 | 31.17945 | -82.31086 | 38130 ft | 467 kts | 199° |
| 2026-04-28 21:27 | 31.11607 | -82.32759 | 38149 ft | 467 kts | 199° |
| 2026-04-28 21:28 | 31.05267 | -82.34429 | 38177 ft | 467 kts | 199° |
| 2026-04-28 21:28 | 30.98927 | -82.36098 | 38197 ft | 467 kts | 198° |
| 2026-04-28 21:29 | 30.92571 | -82.37768 | 38260 ft | 468 kts | 198° |
| 2026-04-28 21:29 | 30.86217 | -82.39435 | 38262 ft | 468 kts | 198° |
| 2026-04-28 21:30 | 30.79848 | -82.41105 | 38246 ft | 471 kts | 198° |
| 2026-04-28 21:30 | 30.73436 | -82.42783 | 38260 ft | 472 kts | 198° |
| 2026-04-28 21:31 | 30.66928 | -82.44042 | 38266 ft | 476 kts | 192° |
| 2026-04-28 21:31 | 30.60336 | -82.44964 | 38262 ft | 477 kts | 192° |
| 2026-04-28 21:32 | 30.53742 | -82.45869 | 38258 ft | 477 kts | 192° |
| 2026-04-28 21:32 | 30.47143 | -82.46772 | 38271 ft | 477 kts | 192° |
| 2026-04-28 21:33 | 30.40548 | -82.47674 | 38258 ft | 477 kts | 192° |
| 2026-04-28 21:33 | 30.33941 | -82.48576 | 38257 ft | 477 kts | 192° |
| 2026-04-28 21:34 | 30.27347 | -82.49475 | 38231 ft | 478 kts | 192° |
| 2026-04-28 21:34 | 30.20746 | -82.50374 | 38120 ft | 478 kts | 192° |
| 2026-04-28 21:35 | 30.14085 | -82.50771 | 38167 ft | 481 kts | 186° |
| 2026-04-28 21:35 | 30.07392 | -82.50931 | 38125 ft | 480 kts | 185° |
| 2026-04-28 21:36 | 30.00706 | -82.51080 | 38144 ft | 481 kts | 185° |
| 2026-04-28 21:36 | 29.94055 | -82.51226 | 38146 ft | 481 kts | 185° |
| 2026-04-28 21:37 | 29.87367 | -82.51374 | 38156 ft | 481 kts | 185° |
| 2026-04-28 21:37 | 29.80660 | -82.51521 | 38149 ft | 482 kts | 185° |
| 2026-04-28 21:38 | 29.73954 | -82.51669 | 38152 ft | 482 kts | 185° |
| 2026-04-28 21:38 | 29.67241 | -82.51816 | 38139 ft | 482 kts | 185° |
| 2026-04-28 21:39 | 29.60527 | -82.51963 | 38127 ft | 483 kts | 185° |
| 2026-04-28 21:39 | 29.53803 | -82.52110 | 38137 ft | 483 kts | 185° |
| 2026-04-28 21:40 | 29.48208 | -82.52233 | 38131 ft | 484 kts | 185° |
| 2026-04-28 21:40 | 29.41470 | -82.52380 | 38132 ft | 484 kts | 185° |
| 2026-04-28 21:41 | 29.33653 | -82.52550 | 38109 ft | 481 kts | 185° |
| 2026-04-28 21:41 | 29.30323 | -82.52621 | 37475 ft | 479 kts | 184° |
| 2026-04-28 21:41 | 29.27007 | -82.52692 | 37114 ft | 474 kts | 183° |
| 2026-04-28 21:42 | 29.21486 | -82.51963 | 37115 ft | 483 kts | 173° |
| 2026-04-28 21:42 | 29.14843 | -82.50763 | 37128 ft | 484 kts | 173° |
| 2026-04-28 21:43 | 29.08196 | -82.49558 | 37131 ft | 483 kts | 173° |
| 2026-04-28 21:43 | 29.01558 | -82.48354 | 37130 ft | 483 kts | 173° |
| 2026-04-28 21:44 | 28.94909 | -82.47151 | 37132 ft | 483 kts | 173° |
| 2026-04-28 21:44 | 28.88267 | -82.45951 | 37133 ft | 483 kts | 173° |
| 2026-04-28 21:45 | 28.81622 | -82.44751 | 37122 ft | 484 kts | 173° |
| 2026-04-28 21:45 | 28.74967 | -82.43551 | 37124 ft | 484 kts | 173° |
| 2026-04-28 21:46 | 28.68315 | -82.42353 | 37130 ft | 485 kts | 173° |
| 2026-04-28 21:46 | 28.61650 | -82.41154 | 37113 ft | 485 kts | 173° |
| 2026-04-28 21:47 | 28.54991 | -82.39958 | 37126 ft | 485 kts | 173° |
| 2026-04-28 21:47 | 28.48341 | -82.38765 | 37114 ft | 482 kts | 173° |
| 2026-04-28 21:48 | 28.41709 | -82.37577 | 37125 ft | 482 kts | 173° |
| 2026-04-28 21:48 | 28.35122 | -82.36399 | 37125 ft | 482 kts | 173° |
| 2026-04-28 21:49 | 28.28500 | -82.35215 | 37119 ft | 482 kts | 173° |
| 2026-04-28 21:49 | 28.21873 | -82.34032 | 37103 ft | 482 kts | 173° |
| 2026-04-28 21:50 | 28.15241 | -82.32850 | 37107 ft | 482 kts | 174° |
| 2026-04-28 21:50 | 28.08606 | -82.31669 | 37094 ft | 482 kts | 174° |
| 2026-04-28 21:51 | 28.02002 | -82.30285 | 37068 ft | 484 kts | 165° |
| 2026-04-28 21:51 | 27.95541 | -82.28076 | 37087 ft | 486 kts | 165° |
| 2026-04-28 21:52 | 27.89076 | -82.25866 | 37103 ft | 485 kts | 165° |
| 2026-04-28 21:52 | 27.82609 | -82.23655 | 37091 ft | 486 kts | 165° |
| 2026-04-28 21:53 | 27.76133 | -82.21443 | 37109 ft | 487 kts | 165° |
| 2026-04-28 21:53 | 27.69646 | -82.19230 | 37107 ft | 487 kts | 165° |
| 2026-04-28 21:54 | 27.63173 | -82.17024 | 37115 ft | 486 kts | 165° |
| 2026-04-28 21:54 | 27.56694 | -82.14820 | 37107 ft | 486 kts | 165° |
| 2026-04-28 21:55 | 27.50209 | -82.12616 | 37108 ft | 486 kts | 165° |
| 2026-04-28 21:55 | 27.43768 | -82.10429 | 37108 ft | 487 kts | 165° |
| 2026-04-28 21:56 | 27.37243 | -82.08217 | 37108 ft | 486 kts | 165° |
| 2026-04-28 21:56 | 27.30810 | -82.06039 | 37104 ft | 486 kts | 165° |
| 2026-04-28 21:57 | 27.24325 | -82.03845 | 37088 ft | 486 kts | 166° |
| 2026-04-28 21:57 | 27.17837 | -82.01654 | 37103 ft | 486 kts | 166° |
| 2026-04-28 21:58 | 27.11378 | -81.99474 | 37103 ft | 486 kts | 166° |
| 2026-04-28 21:58 | 27.08190 | -81.98216 | 37083 ft | 488 kts | 155° |
| 2026-04-28 21:58 | 27.05340 | -81.96155 | 37093 ft | 488 kts | 140° |
| 2026-04-28 21:59 | 27.00284 | -81.91034 | 37085 ft | 491 kts | 137° |
| 2026-04-28 22:00 | 26.92775 | -81.83197 | 37076 ft | 491 kts | 137° |
| 2026-04-28 22:00 | 26.87799 | -81.77971 | 37094 ft | 489 kts | 136° |
| 2026-04-28 22:01 | 26.82834 | -81.72762 | 37085 ft | 489 kts | 136° |
| 2026-04-28 22:01 | 26.77870 | -81.67562 | 37077 ft | 489 kts | 136° |
| 2026-04-28 22:02 | 26.72908 | -81.62369 | 37071 ft | 488 kts | 137° |
| 2026-04-28 22:02 | 26.67950 | -81.57188 | 37071 ft | 488 kts | 137° |
| 2026-04-28 22:03 | 26.62984 | -81.52004 | 37074 ft | 488 kts | 137° |
| 2026-04-28 22:03 | 26.58024 | -81.46833 | 37070 ft | 488 kts | 137° |
| 2026-04-28 22:04 | 26.53052 | -81.41657 | 37071 ft | 488 kts | 137° |
| 2026-04-28 22:04 | 26.48082 | -81.36488 | 37073 ft | 488 kts | 137° |
| 2026-04-28 22:05 | 26.43101 | -81.31315 | 37073 ft | 488 kts | 137° |
| 2026-04-28 22:05 | 26.38129 | -81.26157 | 37079 ft | 488 kts | 138° |
| 2026-04-28 22:06 | 26.33154 | -81.21002 | 37072 ft | 488 kts | 138° |
| 2026-04-28 22:06 | 26.28281 | -81.15741 | 37052 ft | 488 kts | 130° |
| 2026-04-28 22:07 | 26.23867 | -81.09963 | 37069 ft | 491 kts | 131° |
| 2026-04-28 22:07 | 26.19465 | -81.04180 | 37074 ft | 488 kts | 131° |
| 2026-04-28 22:08 | 26.15152 | -80.98516 | 37072 ft | 480 kts | 131° |
| 2026-04-28 22:08 | 26.10844 | -80.92865 | 37075 ft | 479 kts | 131° |
| 2026-04-28 22:09 | 26.06529 | -80.87212 | 37060 ft | 478 kts | 131° |
| 2026-04-28 22:09 | 26.04370 | -80.84383 | 36168 ft | 484 kts | 131° |
| 2026-04-28 22:09 | 26.02168 | -80.81503 | 35156 ft | 494 kts | 130° |
| 2026-04-28 22:09 | 25.99925 | -80.78571 | 34204 ft | 501 kts | 130° |
| 2026-04-28 22:10 | 25.97648 | -80.75597 | 33189 ft | 507 kts | 130° |
| 2026-04-28 22:10 | 25.95377 | -80.72632 | 32592 ft | 502 kts | 130° |
| 2026-04-28 22:10 | 25.93126 | -80.69699 | 32097 ft | 495 kts | 131° |
| 2026-04-28 22:10 | 25.90624 | -80.67126 | 31628 ft | 487 kts | 146° |
| 2026-04-28 22:11 | 25.87638 | -80.65463 | 31295 ft | 475 kts | 164° |
| 2026-04-28 22:11 | 25.84444 | -80.64843 | 31080 ft | 459 kts | 181° |
| 2026-04-28 22:11 | 25.81299 | -80.64998 | 30824 ft | 448 kts | 185° |
| 2026-04-28 22:11 | 25.78209 | -80.65196 | 30510 ft | 441 kts | 185° |
| 2026-04-28 22:12 | 25.75166 | -80.65406 | 30198 ft | 435 kts | 185° |
| 2026-04-28 22:12 | 25.72165 | -80.65625 | 29829 ft | 429 kts | 185° |
| 2026-04-28 22:12 | 25.69210 | -80.65843 | 29476 ft | 423 kts | 185° |
| 2026-04-28 22:12 | 25.66301 | -80.66058 | 29140 ft | 417 kts | 185° |
| 2026-04-28 22:13 | 25.63464 | -80.66269 | 28826 ft | 410 kts | 186° |
| 2026-04-28 22:13 | 25.60606 | -80.66480 | 28529 ft | 404 kts | 186° |
| 2026-04-28 22:13 | 25.57855 | -80.66684 | 28155 ft | 400 kts | 186° |
| 2026-04-28 22:13 | 25.55071 | -80.66890 | 27741 ft | 398 kts | 185° |
| 2026-04-28 22:14 | 25.52315 | -80.67094 | 27349 ft | 396 kts | 185° |
| 2026-04-28 22:14 | 25.49580 | -80.67296 | 26953 ft | 394 kts | 185° |
| 2026-04-28 22:14 | 25.46847 | -80.67499 | 26565 ft | 391 kts | 185° |
| 2026-04-28 22:14 | 25.44141 | -80.67698 | 26195 ft | 389 kts | 185° |
| 2026-04-28 22:15 | 25.41446 | -80.67898 | 25822 ft | 387 kts | 185° |
| 2026-04-28 22:15 | 25.38770 | -80.68122 | 25455 ft | 384 kts | 189° |
| 2026-04-28 22:15 | 25.36186 | -80.68796 | 25114 ft | 380 kts | 196° |
| 2026-04-28 22:15 | 25.33623 | -80.69527 | 24713 ft | 380 kts | 196° |
| 2026-04-28 22:16 | 25.31071 | -80.70243 | 24374 ft | 377 kts | 196° |
| 2026-04-28 22:16 | 25.28528 | -80.70956 | 24005 ft | 376 kts | 195° |
| 2026-04-28 22:16 | 25.26031 | -80.71656 | 23661 ft | 374 kts | 195° |
| 2026-04-28 22:16 | 25.23513 | -80.72361 | 23259 ft | 372 kts | 195° |
| 2026-04-28 22:17 | 25.20979 | -80.73071 | 22864 ft | 370 kts | 195° |
| 2026-04-28 22:17 | 25.18493 | -80.73767 | 22485 ft | 367 kts | 195° |
| 2026-04-28 22:17 | 25.16060 | -80.74448 | 22132 ft | 365 kts | 195° |
| 2026-04-28 22:17 | 25.13607 | -80.75134 | 21762 ft | 362 kts | 195° |
| 2026-04-28 22:18 | 25.11173 | -80.75815 | 21401 ft | 360 kts | 195° |
| 2026-04-28 22:18 | 25.08750 | -80.76492 | 21042 ft | 358 kts | 195° |
| 2026-04-28 22:18 | 25.06343 | -80.77164 | 20686 ft | 356 kts | 195° |
| 2026-04-28 22:18 | 25.03949 | -80.77833 | 20335 ft | 354 kts | 195° |
| 2026-04-28 22:19 | 25.01584 | -80.78527 | 20006 ft | 350 kts | 200° |
| 2026-04-28 22:19 | 24.99489 | -80.79816 | 19672 ft | 344 kts | 221° |
| 2026-04-28 22:19 | 24.97689 | -80.81549 | 19282 ft | 343 kts | 223° |
| 2026-04-28 22:19 | 24.95900 | -80.83284 | 18948 ft | 341 kts | 223° |
| 2026-04-28 22:20 | 24.94128 | -80.85022 | 18615 ft | 340 kts | 223° |
| 2026-04-28 22:20 | 24.92373 | -80.86754 | 18266 ft | 338 kts | 223° |
| 2026-04-28 22:20 | 24.90626 | -80.88485 | 17887 ft | 337 kts | 223° |
| 2026-04-28 22:20 | 24.88891 | -80.90205 | 17528 ft | 334 kts | 224° |
| 2026-04-28 22:21 | 24.87167 | -80.91915 | 17126 ft | 333 kts | 223° |
| 2026-04-28 22:21 | 24.85443 | -80.93625 | 16764 ft | 332 kts | 223° |
| 2026-04-28 22:21 | 24.83732 | -80.95321 | 16412 ft | 331 kts | 223° |
| 2026-04-28 22:21 | 24.82027 | -80.97010 | 16069 ft | 329 kts | 223° |
| 2026-04-28 22:22 | 24.80328 | -80.98693 | 15719 ft | 328 kts | 223° |
| 2026-04-28 22:22 | 24.78638 | -81.00366 | 15379 ft | 326 kts | 223° |
| 2026-04-28 22:22 | 24.77004 | -81.02081 | 15033 ft | 323 kts | 232° |
| 2026-04-28 22:22 | 24.75782 | -81.04133 | 14701 ft | 320 kts | 240° |
| 2026-04-28 22:23 | 24.74632 | -81.06189 | 14369 ft | 319 kts | 240° |
| 2026-04-28 22:23 | 24.73473 | -81.08256 | 14063 ft | 317 kts | 240° |
| 2026-04-28 22:23 | 24.72319 | -81.10318 | 13722 ft | 315 kts | 240° |
| 2026-04-28 22:23 | 24.71179 | -81.12357 | 13489 ft | 310 kts | 240° |
| 2026-04-28 22:24 | 24.70056 | -81.14365 | 13159 ft | 308 kts | 240° |
| 2026-04-28 22:24 | 24.68936 | -81.16365 | 12847 ft | 305 kts | 240° |
| 2026-04-28 22:24 | 24.67827 | -81.18345 | 12508 ft | 304 kts | 240° |
| 2026-04-28 22:24 | 24.66723 | -81.20318 | 12190 ft | 302 kts | 240° |
| 2026-04-28 22:25 | 24.65621 | -81.22283 | 11852 ft | 301 kts | 240° |
| 2026-04-28 22:25 | 24.64477 | -81.24203 | 11533 ft | 300 kts | 232° |
| 2026-04-28 22:25 | 24.63101 | -81.25913 | 11232 ft | 298 kts | 229° |
| 2026-04-28 22:25 | 24.61737 | -81.27615 | 10929 ft | 296 kts | 230° |
| 2026-04-28 22:26 | 24.60386 | -81.29328 | 10597 ft | 296 kts | 230° |
| 2026-04-28 22:26 | 24.59048 | -81.31040 | 10286 ft | 295 kts | 230° |
| 2026-04-28 22:26 | 24.57721 | -81.32748 | 9978 ft | 294 kts | 231° |
| 2026-04-28 22:26 | 24.56845 | -81.33878 | 9759 ft | 293 kts | 231° |
| 2026-04-28 22:27 | 24.55625 | -81.35649 | 9420 ft | 290 kts | 242° |
| 2026-04-28 22:27 | 24.54702 | -81.37610 | 9107 ft | 288 kts | 244° |
| 2026-04-28 22:27 | 24.53791 | -81.39562 | 8793 ft | 286 kts | 244° |
| 2026-04-28 22:27 | 24.52583 | -81.42130 | 8371 ft | 285 kts | 244° |
| 2026-04-28 22:28 | 24.51669 | -81.44063 | 8041 ft | 284 kts | 244° |
| 2026-04-28 22:28 | 24.50763 | -81.45978 | 7756 ft | 282 kts | 243° |
| 2026-04-28 22:28 | 24.50151 | -81.47269 | 7543 ft | 281 kts | 243° |
| 2026-04-28 22:28 | 24.49251 | -81.49169 | 7215 ft | 281 kts | 243° |
| 2026-04-28 22:29 | 24.48364 | -81.51040 | 6942 ft | 279 kts | 243° |
| 2026-04-28 22:29 | 24.47468 | -81.52927 | 6641 ft | 278 kts | 243° |
| 2026-04-28 22:29 | 24.46665 | -81.54841 | 6326 ft | 275 kts | 257° |
| 2026-04-28 22:29 | 24.46502 | -81.56902 | 6065 ft | 270 kts | 270° |
| 2026-04-28 22:30 | 24.46464 | -81.58976 | 5684 ft | 273 kts | 270° |
| 2026-04-28 22:30 | 24.46432 | -81.61057 | 5360 ft | 273 kts | 270° |
| 2026-04-28 22:30 | 24.46407 | -81.63134 | 5087 ft | 271 kts | 271° |
| 2026-04-28 22:30 | 24.46385 | -81.65166 | 4882 ft | 259 kts | 271° |
| 2026-04-28 22:31 | 24.46366 | -81.67088 | 4743 ft | 245 kts | 271° |
| 2026-04-28 22:31 | 24.46349 | -81.68914 | 4617 ft | 237 kts | 270° |
| 2026-04-28 22:31 | 24.46331 | -81.70730 | 4520 ft | 239 kts | 270° |
| 2026-04-28 22:31 | 24.46314 | -81.72552 | 4415 ft | 238 kts | 270° |
| 2026-04-28 22:32 | 24.46297 | -81.74368 | 4259 ft | 237 kts | 270° |
| 2026-04-28 22:32 | 24.46279 | -81.76173 | 4141 ft | 236 kts | 270° |
| 2026-04-28 22:32 | 24.46262 | -81.77976 | 4046 ft | 236 kts | 270° |
| 2026-04-28 22:32 | 24.46244 | -81.79778 | 3927 ft | 236 kts | 270° |
| 2026-04-28 22:33 | 24.46225 | -81.81577 | 3808 ft | 235 kts | 271° |
| 2026-04-28 22:33 | 24.46207 | -81.83374 | 3693 ft | 236 kts | 270° |
| 2026-04-28 22:33 | 24.46188 | -81.85168 | 3585 ft | 235 kts | 270° |
| 2026-04-28 22:33 | 24.46169 | -81.86962 | 3464 ft | 235 kts | 271° |
| 2026-04-28 22:34 | 24.46150 | -81.88725 | 3340 ft | 234 kts | 270° |
| 2026-04-28 22:34 | 24.46131 | -81.90533 | 3225 ft | 234 kts | 270° |
| 2026-04-28 22:34 | 24.46111 | -81.92306 | 3093 ft | 232 kts | 271° |
| 2026-04-28 22:34 | 24.46206 | -81.94068 | 2973 ft | 229 kts | 288° |
| 2026-04-28 22:35 | 24.46988 | -81.95529 | 2833 ft | 222 kts | 321° |
| 2026-04-28 22:35 | 24.48302 | -81.96343 | 2722 ft | 216 kts | 348° |
| 2026-04-28 22:35 | 24.49792 | -81.96534 | 2655 ft | 216 kts | 359° |
| 2026-04-28 22:35 | 24.51280 | -81.96617 | 2561 ft | 217 kts | 359° |
| 2026-04-28 22:36 | 24.52797 | -81.96680 | 2480 ft | 211 kts | 360° |
| 2026-04-28 22:36 | 24.54178 | -81.96475 | 2325 ft | 198 kts | 28° |
| 2026-04-28 22:36 | 24.55093 | -81.95479 | 2137 ft | 182 kts | 66° |
| 2026-04-28 22:36 | 24.55325 | -81.94142 | 2050 ft | 179 kts | 87° |
| 2026-04-28 22:37 | 24.55370 | -81.92810 | 2042 ft | 171 kts | 88° |
| 2026-04-28 22:37 | 24.55406 | -81.91526 | 2002 ft | 168 kts | 87° |
| 2026-04-28 22:37 | 24.55435 | -81.90248 | 1934 ft | 165 kts | 88° |
| 2026-04-28 22:37 | 24.55460 | -81.89015 | 1840 ft | 159 kts | 88° |
| 2026-04-28 22:38 | 24.55479 | -81.87810 | 1729 ft | 157 kts | 87° |
| 2026-04-28 22:38 | 24.55498 | -81.86623 | 1625 ft | 154 kts | 89° |
| 2026-04-28 22:38 | 24.55515 | -81.85472 | 1576 ft | 149 kts | 88° |
| 2026-04-28 22:38 | 24.55528 | -81.84350 | 1570 ft | 147 kts | 88° |
| 2026-04-28 22:39 | 24.55538 | -81.83225 | 1318 ft | 147 kts | 87° |
| 2026-04-28 22:39 | 24.55555 | -81.82104 | 1090 ft | 147 kts | 88° |
| 2026-04-28 22:39 | 24.55606 | -81.80988 | 892 ft | 146 kts | 86° |
| 2026-04-28 22:39 | 24.55602 | -81.79902 | 712 ft | 138 kts | 91° |
| 2026-04-28 22:40 | 24.55585 | -81.78840 | 483 ft | 144 kts | 88° |
| 2026-04-28 22:40 | 24.55602 | -81.77723 | 271 ft | 143 kts | 91° |
| 2026-04-28 22:40 | 24.55611 | -81.76669 | 35 ft | 133 kts | 90° |
| 2026-04-28 22:40 | 24.55620 | -81.75952 | 14 ft | 37 kts | 89° |
| 2026-04-28 22:41 | 24.55621 | -81.75797 | 15 ft | 22 kts | 92° |
| 2026-04-28 22:41 | 24.55619 | -81.75633 | 17 ft | 16 kts | 93° |
| 2026-04-28 22:41 | 24.55593 | -81.75591 | 17 ft | 6 kts | 172° |
| 2026-04-28 22:41 | 24.55550 | -81.75584 | 15 ft | 5 kts | 152° |
| 2026-04-28 22:42 | 24.55532 | -81.75538 | 15 ft | 8 kts | 92° |
| 2026-04-28 22:42 | 24.55531 | -81.75473 | 15 ft | 7 kts | 97° |
| 2026-04-28 22:42 | 24.55508 | -81.75448 | 15 ft | 1 kts | 148° |
| 2026-04-28 22:42 | 24.55489 | -81.75425 | 16 ft | 8 kts | 140° |
| 2026-04-28 22:43 | 24.55471 | -81.75419 | 15 ft | 2 kts | 179° |
| 2026-04-28 22:43 | 24.55456 | -81.75419 | 14 ft | 3 kts | 179° |
| 2026-04-28 22:43 | 24.55446 | -81.75419 | 16 ft | 2 kts | 180° |
| 2026-04-28 22:43 | 24.55443 | -81.75419 | 16 ft | 0 kts | 180° |